Time,TemperatureF,DewpointF,PressureIn,WindDirection,WindDirectionDegrees,WindSpeedMPH,WindSpeedGustMPH,Humidity,HourlyPrecipIn,Conditions,Clouds,dailyrainin,SoftwareType,DateUTC
2013-05-06 00:01:00,61.1,43.0,29.95,NNE,23,3.0,9.0,51,0.00,,,0.00,weatherlink.com 1.10,2013-05-06 04:01:00,
2013-05-06 00:16:00,61.1,42.0,29.95,ENE,61,4.0,9.0,50,0.00,,,0.00,weatherlink.com 1.10,2013-05-06 04:16:00,
2013-05-06 00:31:00,61.2,42.0,29.95,NE,35,5.0,11.0,50,0.00,,,0.00,weatherlink.com 1.10,2013-05-06 04:31:00,
2013-05-06 00:46:00,61.3,42.0,29.95,NE,54,3.0,10.0,50,0.00,,,0.00,weatherlink.com 1.10,2013-05-06 04:46:00,
2013-05-06 01:01:00,61.1,42.0,29.94,NE,41,10.0,10.0,50,0.00,,,0.00,weatherlink.com 1.10,2013-05-06 05:01:00,
2013-05-06 01:16:00,60.8,42.0,29.94,ENE,57,8.0,10.0,51,0.00,,,0.00,weatherlink.com 1.10,2013-05-06 05:16:00,
2013-05-06 01:31:00,60.5,44.0,29.94,ENE,65,8.0,10.0,54,0.00,,,0.00,weatherlink.com 1.10,2013-05-06 05:31:00,
2013-05-06 01:46:00,60.3,43.0,29.94,ENE,65,7.0,8.0,54,0.00,,,0.00,weatherlink.com 1.10,2013-05-06 05:46:00,
2013-05-06 02:01:00,60.0,44.0,29.94,ENE,63,8.0,10.0,55,0.00,,,0.00,weatherlink.com 1.10,2013-05-06 06:01:00,
2013-05-06 02:16:00,59.6,44.0,29.93,ENE,67,5.0,7.0,56,0.00,,,0.00,weatherlink.com 1.10,2013-05-06 06:16:00,
2013-05-06 02:31:00,59.3,44.0,29.94,ENE,63,5.0,8.0,58,0.00,,,0.00,weatherlink.com 1.10,2013-05-06 06:31:00,
2013-05-06 02:46:00,59.2,44.0,29.93,NE,55,5.0,10.0,58,0.00,,,0.00,weatherlink.com 1.10,2013-05-06 06:46:00,
2013-05-06 03:01:00,58.7,44.0,29.93,ENE,59,5.0,8.0,58,0.00,,,0.00,weatherlink.com 1.10,2013-05-06 07:01:00,
2013-05-06 03:16:00,58.3,44.0,29.93,ENE,57,8.0,10.0,59,0.00,,,0.00,weatherlink.com 1.10,2013-05-06 07:16:00,
2013-05-06 03:31:00,57.7,44.0,29.92,ENE,58,4.0,7.0,61,0.00,,,0.00,weatherlink.com 1.10,2013-05-06 07:31:00,
2013-05-06 03:46:00,57.2,44.0,29.92,East,80,5.0,9.0,61,0.00,,,0.00,weatherlink.com 1.10,2013-05-06 07:46:00,
2013-05-06 04:01:00,56.5,44.0,29.92,ENE,70,1.0,5.0,63,0.00,,,0.00,weatherlink.com 1.10,2013-05-06 08:01:00,
2013-05-06 04:16:00,56.1,44.0,29.92,ENE,74,3.0,9.0,64,0.00,,,0.00,weatherlink.com 1.10,2013-05-06 08:16:00,
2013-05-06 04:31:00,56.0,44.0,29.92,East,80,3.0,9.0,64,0.00,,,0.00,weatherlink.com 1.10,2013-05-06 08:31:00,
2013-05-06 04:46:00,55.1,44.0,29.92,ENE,76,1.0,7.0,66,0.00,,,0.00,weatherlink.com 1.10,2013-05-06 08:46:00,
2013-05-06 05:01:00,54.1,44.0,29.93,ENE,67,2.0,5.0,68,0.00,,,0.00,weatherlink.com 1.10,2013-05-06 09:01:00,
2013-05-06 05:16:00,53.5,44.0,29.93,ENE,66,0.0,3.0,70,0.00,,,0.00,weatherlink.com 1.10,2013-05-06 09:16:00,
2013-05-06 05:32:00,53.1,44.0,29.93,East,86,5.0,5.0,71,0.00,,,0.00,weatherlink.com 1.10,2013-05-06 09:32:00,
2013-05-06 05:47:00,53.3,44.0,29.93,ENE,78,2.0,7.0,71,0.00,,,0.00,weatherlink.com 1.10,2013-05-06 09:47:00,
2013-05-06 06:02:00,52.7,44.0,29.93,ENE,78,1.0,5.0,72,0.00,,,0.00,weatherlink.com 1.10,2013-05-06 10:02:00,
2013-05-06 06:17:00,52.3,44.0,29.93,NE,55,0.0,2.0,73,0.00,,,0.00,weatherlink.com 1.10,2013-05-06 10:17:00,
2013-05-06 06:32:00,52.1,44.0,29.94,NE,56,0.0,3.0,74,0.00,,,0.00,weatherlink.com 1.10,2013-05-06 10:32:00,
2013-05-06 06:47:00,52.4,44.0,29.94,NE,46,0.0,4.0,73,0.00,,,0.00,weatherlink.com 1.10,2013-05-06 10:47:00,
2013-05-06 07:02:00,52.4,44.0,29.94,NE,42,0.0,2.0,73,0.00,,,0.00,weatherlink.com 1.10,2013-05-06 11:02:00,
2013-05-06 07:17:00,52.4,44.0,29.95,NE,42,0.0,1.0,74,0.00,,,0.00,weatherlink.com 1.10,2013-05-06 11:17:00,
2013-05-06 07:32:00,52.6,45.0,29.95,NE,42,0.0,1.0,74,0.00,,,0.00,weatherlink.com 1.10,2013-05-06 11:32:00,
2013-05-06 07:47:00,53.7,46.0,29.96,NE,42,0.0,2.0,75,0.00,,,0.00,weatherlink.com 1.10,2013-05-06 11:47:00,
2013-05-06 08:02:00,55.3,46.0,29.96,NNE,28,0.0,4.0,72,0.00,,,0.00,weatherlink.com 1.10,2013-05-06 12:02:00,
2013-05-06 08:17:00,56.9,46.0,29.97,ENE,76,5.0,7.0,67,0.00,,,0.00,weatherlink.com 1.10,2013-05-06 12:17:00,
2013-05-06 08:32:00,58.0,46.0,29.97,ENE,59,8.0,9.0,64,0.00,,,0.00,weatherlink.com 1.10,2013-05-06 12:32:00,
2013-05-06 08:47:00,58.9,45.0,29.97,ENE,69,7.0,10.0,61,0.00,,,0.00,weatherlink.com 1.10,2013-05-06 12:47:00,
2013-05-06 09:02:00,59.4,47.0,29.98,ENE,64,8.0,11.0,63,0.00,,,0.00,weatherlink.com 1.10,2013-05-06 13:02:00,
2013-05-06 09:17:00,60.0,46.0,29.98,East,91,3.0,8.0,60,0.00,,,0.00,weatherlink.com 1.10,2013-05-06 13:17:00,
2013-05-06 09:32:00,60.7,46.0,29.99,East,83,6.0,8.0,59,0.00,,,0.00,weatherlink.com 1.10,2013-05-06 13:32:00,
2013-05-06 09:47:00,61.2,47.0,29.99,East,91,6.0,9.0,59,0.00,,,0.00,weatherlink.com 1.10,2013-05-06 13:47:00,
2013-05-06 10:02:00,62.2,47.0,29.99,East,100,7.0,9.0,58,0.00,,,0.00,weatherlink.com 1.10,2013-05-06 14:02:00,
2013-05-06 10:17:00,62.7,47.0,29.99,East,84,5.0,9.0,57,0.00,,,0.00,weatherlink.com 1.10,2013-05-06 14:17:00,
2013-05-06 10:32:00,63.0,47.0,29.99,East,82,5.0,9.0,57,0.00,,,0.00,weatherlink.com 1.10,2013-05-06 14:32:00,
2013-05-06 10:47:00,64.9,48.0,29.99,ESE,110,5.0,10.0,55,0.00,,,0.00,weatherlink.com 1.10,2013-05-06 14:47:00,
2013-05-06 11:02:00,66.8,49.0,29.98,East,79,8.0,11.0,54,0.00,,,0.00,weatherlink.com 1.10,2013-05-06 15:02:00,
2013-05-06 11:17:00,67.6,49.0,29.98,NE,46,10.0,11.0,52,0.00,,,0.00,weatherlink.com 1.10,2013-05-06 15:17:00,
2013-05-06 11:32:00,68.2,49.0,29.97,ENE,74,9.0,13.0,50,0.00,,,0.00,weatherlink.com 1.10,2013-05-06 15:32:00,
2013-05-06 11:47:00,69.0,51.0,29.97,ESE,120,7.0,13.0,53,0.00,,,0.00,weatherlink.com 1.10,2013-05-06 15:47:00,
2013-05-06 12:02:00,69.4,50.0,29.97,East,92,9.0,12.0,51,0.00,,,0.00,weatherlink.com 1.10,2013-05-06 16:02:00,
2013-05-06 12:17:00,70.3,53.0,29.96,ENE,78,7.0,10.0,54,0.00,,,0.00,weatherlink.com 1.10,2013-05-06 16:17:00,
2013-05-06 12:32:00,71.1,52.0,29.96,ESE,117,10.0,13.0,51,0.00,,,0.00,weatherlink.com 1.10,2013-05-06 16:32:00,
2013-05-06 12:47:00,71.6,53.0,29.96,ENE,72,12.0,13.0,52,0.00,,,0.00,weatherlink.com 1.10,2013-05-06 16:47:00,
2013-05-06 13:02:00,71.4,52.0,29.96,ENE,69,9.0,15.0,50,0.00,,,0.00,weatherlink.com 1.10,2013-05-06 17:02:00,
2013-05-06 13:17:00,70.6,52.0,29.95,East,89,10.0,14.0,52,0.00,,,0.00,weatherlink.com 1.10,2013-05-06 17:17:00,
2013-05-06 13:32:00,71.4,54.0,29.95,ENE,61,7.0,12.0,54,0.00,,,0.00,weatherlink.com 1.10,2013-05-06 17:32:00,
2013-05-06 13:47:00,71.1,53.0,29.95,ENE,67,5.0,14.0,53,0.00,,,0.00,weatherlink.com 1.10,2013-05-06 17:47:00,
2013-05-06 14:02:00,72.2,53.0,29.94,ESE,116,10.0,14.0,52,0.00,,,0.00,weatherlink.com 1.10,2013-05-06 18:02:00,
2013-05-06 14:17:00,71.5,52.0,29.95,SE,125,8.0,14.0,51,0.00,,,0.00,weatherlink.com 1.10,2013-05-06 18:17:00,
2013-05-06 14:32:00,70.7,53.0,29.94,ESE,109,10.0,13.0,53,0.00,,,0.00,weatherlink.com 1.10,2013-05-06 18:32:00,
2013-05-06 14:47:00,70.0,52.0,29.95,East,81,9.0,13.0,54,0.00,,,0.00,weatherlink.com 1.10,2013-05-06 18:47:00,
2013-05-06 15:02:00,70.2,53.0,29.95,SE,134,7.0,12.0,54,0.00,,,0.00,weatherlink.com 1.10,2013-05-06 19:02:00,
2013-05-06 15:17:00,69.9,54.0,29.94,SSE,157,4.0,14.0,57,0.00,,,0.00,weatherlink.com 1.10,2013-05-06 19:17:00,
2013-05-06 15:32:00,69.8,53.0,29.94,SSE,148,5.0,10.0,56,0.00,,,0.00,weatherlink.com 1.10,2013-05-06 19:32:00,
2013-05-06 15:47:00,68.9,53.0,29.94,South,169,3.0,12.0,58,0.00,,,0.00,weatherlink.com 1.10,2013-05-06 19:47:00,
2013-05-06 16:03:00,68.9,54.0,29.93,SSE,156,7.0,10.0,60,0.00,,,0.00,weatherlink.com 1.10,2013-05-06 20:03:00,
2013-05-06 16:18:00,69.4,54.0,29.93,SE,127,8.0,9.0,58,0.00,,,0.00,weatherlink.com 1.10,2013-05-06 20:18:00,
2013-05-06 16:33:00,69.7,53.0,29.93,ESE,115,4.0,11.0,56,0.00,,,0.00,weatherlink.com 1.10,2013-05-06 20:33:00,
2013-05-06 16:48:00,69.6,54.0,29.92,SE,132,7.0,8.0,58,0.00,,,0.00,weatherlink.com 1.10,2013-05-06 20:48:00,
2013-05-06 17:03:00,69.9,53.0,29.92,SE,140,7.0,8.0,56,0.00,,,0.00,weatherlink.com 1.10,2013-05-06 21:03:00,
2013-05-06 17:18:00,70.1,54.0,29.92,East,101,5.0,6.0,56,0.00,,,0.00,weatherlink.com 1.10,2013-05-06 21:18:00,
2013-05-06 17:33:00,70.4,54.0,29.91,SE,134,1.0,4.0,56,0.00,,,0.00,weatherlink.com 1.10,2013-05-06 21:33:00,
2013-05-06 17:48:00,71.0,53.0,29.91,ENE,68,5.0,10.0,54,0.00,,,0.00,weatherlink.com 1.10,2013-05-06 21:48:00,
2013-05-06 18:03:00,70.8,52.0,29.91,East,98,7.0,8.0,51,0.00,,,0.00,weatherlink.com 1.10,2013-05-06 22:03:00,
2013-05-06 18:18:00,71.8,51.0,29.91,ENE,78,4.0,10.0,48,0.00,,,0.00,weatherlink.com 1.10,2013-05-06 22:18:00,
2013-05-06 18:33:00,71.6,52.0,29.91,East,100,8.0,10.0,51,0.00,,,0.00,weatherlink.com 1.10,2013-05-06 22:33:00,
2013-05-06 18:48:00,70.8,51.0,29.91,ENE,69,3.0,8.0,50,0.00,,,0.00,weatherlink.com 1.10,2013-05-06 22:48:00,
2013-05-06 19:03:00,70.4,51.0,29.92,East,83,3.0,9.0,50,0.00,,,0.00,weatherlink.com 1.10,2013-05-06 23:03:00,
2013-05-06 19:18:00,70.0,49.0,29.92,ENE,63,4.0,9.0,48,0.00,,,0.00,weatherlink.com 1.10,2013-05-06 23:18:00,
2013-05-06 19:33:00,69.9,50.0,29.92,ENE,78,3.0,9.0,49,0.00,,,0.00,weatherlink.com 1.10,2013-05-06 23:33:00,
2013-05-06 19:48:00,69.5,50.0,29.92,ENE,77,2.0,5.0,51,0.00,,,0.00,weatherlink.com 1.10,2013-05-06 23:48:00,
2013-05-06 20:03:00,69.2,51.0,29.92,NE,54,2.0,4.0,53,0.00,,,0.00,weatherlink.com 1.10,2013-05-07 00:03:00,
2013-05-06 20:18:00,68.7,52.0,29.92,NE,54,0.0,2.0,55,0.00,,,0.00,weatherlink.com 1.10,2013-05-07 00:18:00,
2013-05-06 20:33:00,67.9,51.0,29.93,NE,45,3.0,4.0,55,0.00,,,0.00,weatherlink.com 1.10,2013-05-07 00:33:00,
2013-05-06 20:48:00,67.7,51.0,29.93,ENE,62,3.0,5.0,56,0.00,,,0.00,weatherlink.com 1.10,2013-05-07 00:48:00,
2013-05-06 21:03:00,67.1,51.0,29.93,NE,37,3.0,5.0,57,0.00,,,0.00,weatherlink.com 1.10,2013-05-07 01:03:00,
2013-05-06 21:18:00,66.8,52.0,29.93,ENE,59,2.0,4.0,59,0.00,,,0.00,weatherlink.com 1.10,2013-05-07 01:18:00,
2013-05-06 21:33:00,66.1,52.0,29.94,ENE,75,4.0,7.0,60,0.00,,,0.00,weatherlink.com 1.10,2013-05-07 01:33:00,
2013-05-06 21:48:00,66.1,52.0,29.94,ENE,72,2.0,8.0,61,0.00,,,0.00,weatherlink.com 1.10,2013-05-07 01:48:00,
2013-05-06 22:03:00,65.4,53.0,29.95,East,83,1.0,4.0,64,0.00,,,0.00,weatherlink.com 1.10,2013-05-07 02:03:00,
2013-05-06 22:18:00,65.0,52.0,29.95,ENE,63,3.0,7.0,64,0.00,,,0.00,weatherlink.com 1.10,2013-05-07 02:18:00,
2013-05-06 22:33:00,64.5,52.0,29.95,ENE,59,2.0,5.0,65,0.00,,,0.00,weatherlink.com 1.10,2013-05-07 02:33:00,
2013-05-06 22:48:00,64.1,52.0,29.96,ENE,70,3.0,5.0,66,0.00,,,0.00,weatherlink.com 1.10,2013-05-07 02:48:00,
2013-05-06 23:03:00,64.1,52.0,29.96,ENE,74,4.0,7.0,66,0.00,,,0.00,weatherlink.com 1.10,2013-05-07 03:03:00,
2013-05-06 23:18:00,63.6,52.0,29.96,East,90,6.0,8.0,67,0.00,,,0.00,weatherlink.com 1.10,2013-05-07 03:18:00,
2013-05-06 23:33:00,63.0,52.0,29.96,East,80,5.0,7.0,68,0.00,,,0.00,weatherlink.com 1.10,2013-05-07 03:33:00,
2013-05-06 23:48:00,62.2,52.0,29.95,East,100,3.0,8.0,70,0.00,,,0.00,weatherlink.com 1.10,2013-05-07 03:48:00,